East Oolitic, Indiana
Current Conditions -  °F | °C
As of 6:53 PM on Monday 20 Oct 2014 (Local Time) from KBMG Reporting Station
Clear Clear  
Wind Chill: 65°   Ceiling: Unl
Heat Index: 65°   Visibility: 10mi
Dew Point: 43°   Wind: 6mph
Humidity: 45%   Direction: 300°WNW
Pressure: 29.89"   Gusts: NA
Location:  38.8737°N, 86.4563°W
Report Text: KBMG 202253Z 30005KT 10SM CLR 18/06 A2989 RMK AO2 SLP118 T01830061 $
Loading
Personal Weather Stations






























Interactive Weather Map
Tropical Storm Tracking
New forecast layout! Learn more

10-Day Weather Forecast

Advertisements
Track Severe Weather on mobile